createdAt,value
2023-06-28T00:00:20.795Z,16.47
2023-06-28T00:02:47.443Z,16.56
2023-06-28T00:05:14.415Z,16.78
2023-06-28T00:07:41.364Z,16.67
2023-06-28T00:10:08.098Z,16.65
2023-06-28T00:12:34.759Z,16.73
2023-06-28T00:15:01.325Z,16.75
2023-06-28T00:17:30.673Z,16.74
2023-06-28T00:20:07.067Z,16.78
2023-06-28T00:22:34.201Z,16.84
2023-06-28T00:25:02.580Z,16.84
2023-06-28T00:27:28.988Z,16.64
2023-06-28T00:29:57.086Z,16.32
2023-06-28T00:32:27.759Z,16.53
2023-06-28T00:34:54.376Z,16.34
2023-06-28T00:37:21.136Z,16.33
2023-06-28T00:39:47.614Z,16.35
2023-06-28T00:42:14.152Z,16.38
2023-06-28T00:44:40.586Z,16.41
2023-06-28T00:47:07.561Z,16.52
2023-06-28T00:49:38.053Z,16.45
2023-06-28T00:52:06.551Z,16.40
2023-06-28T00:54:33.050Z,16.46
2023-06-28T00:57:00.665Z,16.52
2023-06-28T00:59:27.873Z,16.46
2023-06-28T01:01:54.563Z,16.39
2023-06-28T01:04:21.159Z,16.21
2023-06-28T01:06:54.385Z,16.18
2023-06-28T01:09:25.506Z,16.10
2023-06-28T01:11:54.138Z,16.04
2023-06-28T01:14:22.605Z,15.92
2023-06-28T01:16:55.700Z,15.89
2023-06-28T01:19:24.688Z,15.90
2023-06-28T01:22:00.438Z,15.95
2023-06-28T01:24:27.488Z,15.88
2023-06-28T01:26:54.921Z,15.81
2023-06-28T01:29:22.969Z,15.89
2023-06-28T01:31:54.111Z,15.98
2023-06-28T01:34:21.012Z,16.18
2023-06-28T01:36:49.016Z,16.35
2023-06-28T01:39:18.836Z,16.35
2023-06-28T01:41:46.647Z,16.32
2023-06-28T01:44:13.972Z,16.52
2023-06-28T01:46:41.116Z,16.31
2023-06-28T01:49:08.686Z,16.27
2023-06-28T01:51:36.254Z,16.25
2023-06-28T01:54:03.940Z,16.22
2023-06-28T01:56:31.074Z,16.16
2023-06-28T01:58:57.628Z,16.17
2023-06-28T02:01:24.417Z,16.19
2023-06-28T02:03:50.969Z,16.15
2023-06-28T02:06:17.510Z,16.23
2023-06-28T02:08:43.947Z,16.20
2023-06-28T02:11:10.384Z,16.23
2023-06-28T02:13:36.868Z,16.22
2023-06-28T02:16:03.501Z,16.14
2023-06-28T02:18:32.488Z,16.13
2023-06-28T02:20:59.077Z,16.20
2023-06-28T02:23:25.759Z,16.21
2023-06-28T02:25:52.360Z,16.27
2023-06-28T02:28:20.575Z,16.28
2023-06-28T02:30:47.578Z,16.31
2023-06-28T02:33:14.161Z,16.16
2023-06-28T02:35:40.729Z,16.05
2023-06-28T02:38:07.155Z,16.19
2023-06-28T02:40:33.689Z,16.21
2023-06-28T02:43:00.133Z,16.17
2023-06-28T02:45:26.570Z,16.07
2023-06-28T02:47:53.064Z,16.18
2023-06-28T02:50:19.849Z,15.98
2023-06-28T02:52:46.358Z,16.04
2023-06-28T02:55:13.744Z,15.97
2023-06-28T02:57:40.647Z,15.84
2023-06-28T03:00:08.985Z,15.82
2023-06-28T03:02:35.717Z,15.56
2023-06-28T03:05:02.335Z,15.65
2023-06-28T03:07:28.843Z,15.64
2023-06-28T03:09:55.368Z,15.63
2023-06-28T03:12:21.828Z,15.79
2023-06-28T03:14:48.343Z,15.93
2023-06-28T03:17:14.788Z,15.85
2023-06-28T03:19:41.323Z,15.89
2023-06-28T03:22:07.799Z,15.91
2023-06-28T03:24:34.357Z,15.89
2023-06-28T03:27:00.885Z,16.05
2023-06-28T03:29:27.353Z,15.96
2023-06-28T03:31:56.194Z,16.03
2023-06-28T03:34:22.813Z,16.05
2023-06-28T03:37:02.709Z,15.95
2023-06-28T03:39:29.793Z,16.05
2023-06-28T03:41:56.201Z,15.91
2023-06-28T03:44:22.693Z,15.88
2023-06-28T03:46:49.134Z,15.99
2023-06-28T03:49:15.655Z,15.92
2023-06-28T03:51:42.122Z,15.91
2023-06-28T03:54:08.550Z,15.93
2023-06-28T03:56:35.010Z,15.83
2023-06-28T03:59:01.502Z,15.89
2023-06-28T04:01:27.913Z,15.94
2023-06-28T04:03:54.485Z,15.88
2023-06-28T04:06:21.077Z,15.92
2023-06-28T04:08:48.126Z,15.78
2023-06-28T04:11:14.683Z,15.85
2023-06-28T04:13:41.107Z,15.83
2023-06-28T04:16:07.569Z,15.85
2023-06-28T04:18:34.053Z,15.66
2023-06-28T04:21:03.574Z,15.69
2023-06-28T04:23:30.076Z,15.84
2023-06-28T04:26:01.653Z,15.91
2023-06-28T04:28:33.118Z,16.02
2023-06-28T04:31:01.244Z,15.98
2023-06-28T04:33:31.338Z,15.82
2023-06-28T04:36:09.416Z,15.96
2023-06-28T04:39:06.495Z,15.98
2023-06-28T04:41:43.817Z,15.85
2023-06-28T04:44:13.197Z,16.01
2023-06-28T04:46:45.744Z,15.86
2023-06-28T04:49:15.531Z,15.96
2023-06-28T04:51:52.433Z,15.80
2023-06-28T04:54:26.684Z,16.03
2023-06-28T04:57:02.172Z,16.01
2023-06-28T05:02:23.830Z,16.03
2023-06-28T05:04:50.576Z,15.87
2023-06-28T05:07:24.394Z,16.03
2023-06-28T05:09:58.798Z,15.94
2023-06-28T05:12:29.290Z,16.06
2023-06-28T05:14:57.700Z,16.12
2023-06-28T05:17:24.300Z,16.13
2023-06-28T05:19:50.829Z,16.25
2023-06-28T05:22:17.372Z,16.27
2023-06-28T05:24:43.790Z,16.17
2023-06-28T05:27:10.276Z,16.20
2023-06-28T05:29:37.098Z,16.24
2023-06-28T05:32:04.055Z,16.25
2023-06-28T05:34:30.676Z,16.23
2023-06-28T05:36:57.191Z,16.32
2023-06-28T05:39:23.684Z,16.50
2023-06-28T05:41:50.115Z,16.69
2023-06-28T05:44:19.249Z,16.54
2023-06-28T05:46:45.827Z,16.55
2023-06-28T05:49:12.671Z,16.26
2023-06-28T05:51:39.114Z,16.39
2023-06-28T05:54:05.849Z,16.59
2023-06-28T05:56:32.795Z,16.64
2023-06-28T05:58:59.451Z,16.74
2023-06-28T06:01:26.016Z,16.76
2023-06-28T06:03:52.676Z,16.50
2023-06-28T06:06:20.389Z,16.44
2023-06-28T06:08:46.953Z,16.65
2023-06-28T06:11:13.610Z,16.65
2023-06-28T06:13:40.102Z,16.60
2023-06-28T06:16:06.601Z,16.87
2023-06-28T06:18:34.942Z,17.17
2023-06-28T06:21:01.381Z,17.02
2023-06-28T06:23:27.842Z,16.90
2023-06-28T06:25:54.309Z,16.86
2023-06-28T06:28:20.826Z,16.98
2023-06-28T06:30:47.709Z,17.66
2023-06-28T06:33:14.635Z,17.61
2023-06-28T06:35:41.276Z,16.87
2023-06-28T06:38:07.855Z,16.75
2023-06-28T06:40:34.940Z,16.95
2023-06-28T06:43:01.713Z,16.91
2023-06-28T06:45:28.282Z,17.25
2023-06-28T06:47:54.822Z,17.28
2023-06-28T06:50:21.323Z,17.29
2023-06-28T06:52:47.871Z,17.32
2023-06-28T06:55:14.677Z,17.40
2023-06-28T06:57:43.058Z,17.54
2023-06-28T07:00:23.294Z,17.58
2023-06-28T07:08:47.005Z,17.39
2023-06-28T07:11:13.632Z,17.63
2023-06-28T07:13:40.049Z,17.64
2023-06-28T07:16:06.498Z,17.67
2023-06-28T07:18:33.154Z,17.61
2023-06-28T07:20:59.720Z,17.62
2023-06-28T07:23:26.173Z,17.35
2023-06-28T07:25:52.659Z,17.42
2023-06-28T07:28:19.181Z,17.59
2023-06-28T07:30:54.814Z,17.59
2023-06-28T07:33:23.404Z,17.64
2023-06-28T07:35:50.830Z,17.34
2023-06-28T07:38:19.476Z,17.56
2023-06-28T07:40:47.188Z,17.51
2023-06-28T07:43:15.150Z,17.69
2023-06-28T07:45:42.152Z,17.64
2023-06-28T07:48:09.169Z,17.90
2023-06-28T07:50:36.259Z,17.82
2023-06-28T07:53:03.487Z,17.98
2023-06-28T07:55:30.930Z,18.05
2023-06-28T07:57:58.303Z,18.23
2023-06-28T08:00:28.213Z,18.21
2023-06-28T08:02:54.798Z,18.05
2023-06-28T08:05:21.490Z,18.21
2023-06-28T08:07:49.622Z,18.38
2023-06-28T08:10:16.392Z,18.89
2023-06-28T08:12:42.869Z,19.33
2023-06-28T08:15:09.900Z,19.89
2023-06-28T08:17:36.677Z,20.38
2023-06-28T08:20:03.415Z,20.36
2023-06-28T08:22:29.981Z,19.77
2023-06-28T08:24:56.480Z,19.92
2023-06-28T08:27:22.948Z,19.95
2023-06-28T08:29:49.359Z,20.30
2023-06-28T08:32:16.050Z,20.29
2023-06-28T08:34:42.576Z,20.29
2023-06-28T08:37:09.746Z,20.83
2023-06-28T08:39:39.204Z,20.95
2023-06-28T08:42:06.394Z,20.99
2023-06-28T08:44:34.201Z,21.02
2023-06-28T08:47:01.987Z,21.07
2023-06-28T08:49:29.338Z,20.93
2023-06-28T08:51:56.612Z,21.09
2023-06-28T08:54:25.636Z,20.87
2023-06-28T08:57:05.584Z,20.78
2023-06-28T08:59:39.338Z,20.79
2023-06-28T09:02:09.601Z,20.98
2023-06-28T09:04:37.300Z,20.44
2023-06-28T09:07:04.810Z,20.48
2023-06-28T09:09:32.071Z,20.68
2023-06-28T09:11:59.243Z,20.89
2023-06-28T09:14:25.716Z,20.88
2023-06-28T09:16:52.136Z,20.96
2023-06-28T09:19:18.652Z,21.02
2023-06-28T09:21:46.763Z,20.96
2023-06-28T09:24:14.297Z,20.84
2023-06-28T09:26:44.917Z,20.79
2023-06-28T09:29:13.266Z,20.61
2023-06-28T09:31:43.800Z,20.26
2023-06-28T09:34:10.907Z,20.57
2023-06-28T09:36:38.406Z,20.68
2023-06-28T09:39:06.043Z,20.19
2023-06-28T09:41:38.450Z,20.31
2023-06-28T09:44:06.212Z,20.46
2023-06-28T09:46:33.962Z,20.86
2023-06-28T09:49:00.791Z,20.35
2023-06-28T09:51:28.006Z,20.75
2023-06-28T09:53:55.646Z,21.27
2023-06-28T09:56:34.309Z,21.20
2023-06-28T09:59:03.457Z,21.16
2023-06-28T10:01:30.536Z,21.48
2023-06-28T10:03:59.587Z,21.78
2023-06-28T10:06:28.605Z,21.59
2023-06-28T10:08:56.192Z,21.59
2023-06-28T10:11:23.227Z,21.43
2023-06-28T10:13:50.266Z,21.61
2023-06-28T10:16:19.695Z,21.58
2023-06-28T10:18:46.247Z,21.69
2023-06-28T10:21:12.987Z,21.59
2023-06-28T10:23:41.460Z,21.96
2023-06-28T10:26:09.137Z,21.98
2023-06-28T10:28:36.437Z,22.37
2023-06-28T10:31:04.461Z,22.59
2023-06-28T10:33:34.989Z,22.78
2023-06-28T10:36:01.812Z,22.13
2023-06-28T10:38:38.434Z,22.04
2023-06-28T10:41:06.182Z,21.24
2023-06-28T10:43:32.772Z,21.58
2023-06-28T10:45:59.719Z,22.21
2023-06-28T10:48:28.246Z,22.48
2023-06-28T10:50:59.319Z,22.56
2023-06-28T10:53:28.414Z,23.15
2023-06-28T10:56:13.811Z,23.18
2023-06-28T10:58:42.574Z,23.26
2023-06-28T11:01:11.153Z,23.33
2023-06-28T11:03:43.231Z,23.89
2023-06-28T11:06:12.034Z,23.32
2023-06-28T11:08:40.078Z,24.41
2023-06-28T11:11:08.432Z,23.41
2023-06-28T11:13:41.093Z,23.47
2023-06-28T11:16:12.335Z,23.94
2023-06-28T11:18:39.243Z,24.07
2023-06-28T11:21:13.292Z,23.96
2023-06-28T11:23:41.695Z,22.93
2023-06-28T11:26:13.296Z,23.63
2023-06-28T11:28:49.802Z,23.94
2023-06-28T11:31:26.022Z,24.02
2023-06-28T11:33:57.110Z,24.95
2023-06-28T11:36:25.776Z,25.37
2023-06-28T11:38:52.930Z,24.76
2023-06-28T11:41:19.447Z,24.69
2023-06-28T11:43:46.758Z,25.09
2023-06-28T11:46:23.470Z,24.23
2023-06-28T11:48:51.706Z,24.95
2023-06-28T11:51:18.631Z,25.35
2023-06-28T11:53:52.047Z,25.86
2023-06-28T11:56:18.505Z,24.50
2023-06-28T11:58:44.930Z,23.75
2023-06-28T12:01:24.771Z,24.26
2023-06-28T12:03:51.518Z,24.17
2023-06-28T12:06:18.165Z,25.90
2023-06-28T12:08:44.645Z,25.48
2023-06-28T12:11:16.584Z,25.27
2023-06-28T12:13:44.482Z,24.61
2023-06-28T12:16:18.265Z,24.68
2023-06-28T12:18:59.684Z,24.42
2023-06-28T12:21:28.785Z,23.83
2023-06-28T12:24:22.718Z,23.13
2023-06-28T12:26:50.447Z,24.20
2023-06-28T12:29:22.932Z,25.75
2023-06-28T12:31:51.855Z,26.18
2023-06-28T12:34:26.119Z,26.64
2023-06-28T12:37:01.536Z,26.19
2023-06-28T12:39:29.905Z,24.81
2023-06-28T12:42:05.702Z,25.02
2023-06-28T12:44:49.186Z,25.18
2023-06-28T12:47:15.903Z,26.39
2023-06-28T12:49:42.483Z,26.78
2023-06-28T12:52:08.980Z,26.49
2023-06-28T12:54:35.403Z,27.08
2023-06-28T12:57:04.289Z,25.73
2023-06-28T12:59:32.401Z,26.85
2023-06-28T13:01:59.087Z,26.54
2023-06-28T13:04:28.073Z,27.58
2023-06-28T13:06:54.630Z,26.25
2023-06-28T13:09:21.565Z,24.78
2023-06-28T13:11:48.136Z,23.54
2023-06-28T13:14:16.534Z,24.71
2023-06-28T13:16:44.051Z,25.29
2023-06-28T13:19:10.957Z,25.38
2023-06-28T13:21:37.446Z,24.97
2023-06-28T13:24:04.531Z,24.96
2023-06-28T13:26:31.608Z,25.81
2023-06-28T13:28:58.046Z,26.28
2023-06-28T13:31:24.699Z,25.84
2023-06-28T13:33:51.159Z,24.83
2023-06-28T13:36:22.467Z,24.41
2023-06-28T13:38:49.436Z,24.39
2023-06-28T13:41:15.974Z,23.83
2023-06-28T13:43:42.414Z,24.33
2023-06-28T13:46:08.988Z,25.49
2023-06-28T13:48:35.439Z,26.42
2023-06-28T13:51:02.133Z,28.89
2023-06-28T13:53:28.731Z,30.10
2023-06-28T13:55:55.337Z,30.80
2023-06-28T13:58:21.817Z,29.46
2023-06-28T14:00:49.094Z,29.29
2023-06-28T14:03:15.708Z,28.57
2023-06-28T14:05:42.366Z,27.57
2023-06-28T14:08:09.033Z,29.21
2023-06-28T14:10:35.540Z,27.03
2023-06-28T14:13:02.024Z,29.31
2023-06-28T14:15:28.431Z,27.17
2023-06-28T14:17:55.003Z,26.95
2023-06-28T14:20:21.482Z,26.01
2023-06-28T14:22:51.763Z,25.06
2023-06-28T14:25:18.616Z,25.33
2023-06-28T14:27:45.074Z,25.28
2023-06-28T14:30:12.640Z,26.42
2023-06-28T14:32:40.877Z,26.15
2023-06-28T14:35:07.968Z,27.71
2023-06-28T14:37:34.441Z,27.30
2023-06-28T14:40:00.914Z,26.38
2023-06-28T14:42:27.404Z,25.60
2023-06-28T14:44:54.003Z,25.40
2023-06-28T14:47:20.496Z,25.42
2023-06-28T14:49:47.096Z,25.21
2023-06-28T14:52:13.641Z,25.67
2023-06-28T14:54:40.126Z,25.54
2023-06-28T14:57:06.981Z,26.26
2023-06-28T14:59:33.470Z,26.15
2023-06-28T15:01:59.984Z,27.11
2023-06-28T15:04:29.035Z,26.39
2023-06-28T15:06:56.008Z,26.28
2023-06-28T15:09:22.718Z,26.01
2023-06-28T15:11:49.272Z,25.64
2023-06-28T15:14:16.050Z,25.30
2023-06-28T15:16:42.722Z,25.13
2023-06-28T15:19:09.473Z,25.06
2023-06-28T15:21:35.960Z,24.93
2023-06-28T15:24:04.231Z,24.96
2023-06-28T15:26:31.256Z,24.94
2023-06-28T15:28:59.606Z,24.91
2023-06-28T15:31:26.329Z,24.87
2023-06-28T15:33:53.141Z,25.28
2023-06-28T15:36:19.792Z,24.82
2023-06-28T15:38:46.469Z,24.51
2023-06-28T15:41:12.940Z,24.49
2023-06-28T15:43:40.656Z,24.71
2023-06-28T15:46:12.384Z,24.73
2023-06-28T15:48:38.929Z,24.81
2023-06-28T15:51:05.414Z,24.96
2023-06-28T15:53:31.834Z,24.80
2023-06-28T15:55:58.498Z,24.90
2023-06-28T15:58:28.425Z,24.97
2023-06-28T16:00:57.549Z,25.02
2023-06-28T16:03:24.342Z,24.92
2023-06-28T16:05:50.879Z,24.37
2023-06-28T16:08:17.288Z,24.17
2023-06-28T16:10:43.904Z,24.48
2023-06-28T16:13:14.815Z,24.23
2023-06-28T16:15:41.402Z,24.23
2023-06-28T16:18:07.973Z,24.16
2023-06-28T16:20:34.481Z,23.77
2023-06-28T16:23:01.081Z,23.89
2023-06-28T16:25:27.523Z,23.79
2023-06-28T16:27:53.998Z,23.61
2023-06-28T16:30:20.487Z,23.53
2023-06-28T16:32:46.959Z,23.52
2023-06-28T16:35:13.597Z,23.49
2023-06-28T16:37:40.838Z,23.54
2023-06-28T16:40:07.912Z,23.68
2023-06-28T16:42:34.361Z,23.59
2023-06-28T16:45:00.860Z,23.57
2023-06-28T16:47:27.453Z,23.69
2023-06-28T16:49:54.055Z,23.52
2023-06-28T16:52:20.515Z,23.54
2023-06-28T16:54:47.121Z,23.47
2023-06-28T16:57:13.573Z,23.42
2023-06-28T16:59:40.009Z,23.48
2023-06-28T17:02:06.773Z,23.25
2023-06-28T17:04:33.201Z,23.21
2023-06-28T17:06:59.692Z,23.19
2023-06-28T17:09:27.490Z,23.16
2023-06-28T17:11:53.989Z,23.08
2023-06-28T17:14:20.465Z,23.03
2023-06-28T17:16:46.996Z,23.00
2023-06-28T17:19:13.483Z,22.80
2023-06-28T17:21:39.892Z,22.84
2023-06-28T17:24:07.597Z,22.92
2023-06-28T17:26:34.405Z,22.77
2023-06-28T17:29:00.896Z,22.97
2023-06-28T17:31:27.810Z,23.15
2023-06-28T17:33:54.647Z,23.08
2023-06-28T17:36:22.209Z,23.27
2023-06-28T17:38:48.674Z,23.25
2023-06-28T17:41:15.435Z,23.05
2023-06-28T17:43:42.560Z,22.96
2023-06-28T17:46:09.312Z,23.00
2023-06-28T17:48:35.841Z,22.84
2023-06-28T17:51:02.473Z,22.87
2023-06-28T17:53:28.868Z,22.86
2023-06-28T17:55:56.261Z,22.85
2023-06-28T17:58:22.743Z,22.96
2023-06-28T18:00:49.167Z,22.99
2023-06-28T18:03:15.614Z,22.99
2023-06-28T18:05:42.137Z,22.97
2023-06-28T18:08:08.994Z,23.05
2023-06-28T18:10:35.569Z,23.00
2023-06-28T18:13:02.537Z,22.99
2023-06-28T18:15:29.442Z,22.83
2023-06-28T18:17:55.945Z,22.93
2023-06-28T18:20:22.486Z,22.98
2023-06-28T18:22:49.026Z,22.92
2023-06-28T18:25:15.585Z,22.96
2023-06-28T18:27:42.444Z,22.76
2023-06-28T18:30:09.697Z,22.93
2023-06-28T18:32:36.334Z,22.79
2023-06-28T18:35:03.573Z,22.75
2023-06-28T18:37:39.104Z,22.87
2023-06-28T18:40:06.757Z,22.74
2023-06-28T18:42:33.448Z,22.71
2023-06-28T18:45:00.033Z,22.71
2023-06-28T18:47:26.574Z,22.78
2023-06-28T18:49:53.115Z,22.65
2023-06-28T18:52:19.978Z,22.63
2023-06-28T18:54:46.554Z,22.61
2023-06-28T18:57:13.297Z,22.47
2023-06-28T18:59:39.793Z,22.35
2023-06-28T19:02:06.608Z,22.21
2023-06-28T19:04:33.092Z,22.02
2023-06-28T19:07:00.339Z,21.96
2023-06-28T19:09:26.823Z,21.99
2023-06-28T19:11:53.327Z,21.86
2023-06-28T19:14:19.882Z,21.86
2023-06-28T19:16:46.430Z,21.77
2023-06-28T19:19:13.020Z,21.65
2023-06-28T19:21:39.501Z,21.59
2023-06-28T19:24:06.494Z,21.49
2023-06-28T19:26:33.007Z,21.42
2023-06-28T19:28:59.525Z,21.35
2023-06-28T19:31:26.432Z,21.30
2023-06-28T19:33:52.991Z,21.25
2023-06-28T19:36:19.535Z,21.15
2023-06-28T19:38:46.047Z,21.13
2023-06-28T19:41:12.480Z,21.09
2023-06-28T19:43:39.141Z,20.81
2023-06-28T19:46:05.683Z,20.56
2023-06-28T19:48:32.645Z,20.41
2023-06-28T19:51:01.866Z,20.21
2023-06-28T19:53:29.747Z,20.06
2023-06-28T19:55:56.301Z,19.79
2023-06-28T19:58:22.881Z,19.67
2023-06-28T20:00:49.390Z,19.48
2023-06-28T20:03:15.969Z,19.45
2023-06-28T20:05:42.626Z,19.32
2023-06-28T20:08:09.411Z,19.06
2023-06-28T20:10:36.077Z,18.86
2023-06-28T20:13:02.615Z,18.76
2023-06-28T20:15:29.092Z,18.85
2023-06-28T20:17:55.653Z,18.75
2023-06-28T20:20:22.334Z,18.34
2023-06-28T20:22:48.869Z,18.10
2023-06-28T20:25:15.415Z,18.11
2023-06-28T20:27:42.793Z,17.91
2023-06-28T20:30:10.709Z,17.80
2023-06-28T20:32:38.527Z,18.07
2023-06-28T20:35:06.900Z,17.96
2023-06-28T20:37:33.381Z,17.89
2023-06-28T20:40:01.813Z,17.91
2023-06-28T20:42:29.709Z,17.65
2023-06-28T20:44:56.685Z,17.52
2023-06-28T20:47:26.143Z,17.45
2023-06-28T20:49:53.060Z,16.95
2023-06-28T20:52:20.693Z,17.07
2023-06-28T20:54:47.241Z,17.10
2023-06-28T20:57:13.781Z,16.95
2023-06-28T20:59:40.239Z,17.00
2023-06-28T21:02:10.832Z,16.99
2023-06-28T21:04:37.475Z,17.04
2023-06-28T21:07:04.135Z,16.99
2023-06-28T21:09:30.630Z,16.93
2023-06-28T21:11:57.129Z,16.93
2023-06-28T21:14:23.593Z,16.71
2023-06-28T21:16:50.079Z,16.55
2023-06-28T21:19:16.534Z,16.53
2023-06-28T21:21:43.888Z,16.39
2023-06-28T21:24:10.798Z,16.33
2023-06-28T21:26:37.370Z,16.34
2023-06-28T21:29:03.876Z,16.19
2023-06-28T21:31:31.024Z,16.22
2023-06-28T21:33:57.628Z,16.05
2023-06-28T21:36:27.512Z,16.09
2023-06-28T21:38:54.010Z,16.00
2023-06-28T21:41:20.863Z,16.00
2023-06-28T21:43:47.462Z,16.01
2023-06-28T21:46:14.151Z,15.97
2023-06-28T21:48:40.617Z,15.76
2023-06-28T21:51:07.205Z,15.70
2023-06-28T21:53:33.820Z,15.66
2023-06-28T21:56:00.407Z,15.52
2023-06-28T21:58:28.723Z,15.51
2023-06-28T22:00:57.886Z,15.47
2023-06-28T22:03:25.556Z,15.59
2023-06-28T22:05:52.109Z,15.65
2023-06-28T22:08:18.703Z,15.62
2023-06-28T22:10:45.126Z,15.45
2023-06-28T22:13:12.259Z,15.34
2023-06-28T22:15:40.897Z,15.35
2023-06-28T22:18:12.046Z,15.38
2023-06-28T22:20:40.481Z,15.31
2023-06-28T22:23:07.910Z,15.35
2023-06-28T22:25:40.274Z,15.37
2023-06-28T22:28:07.241Z,15.35
2023-06-28T22:30:33.761Z,15.53
2023-06-28T22:33:00.320Z,15.63
2023-06-28T22:35:27.635Z,15.57
2023-06-28T22:37:58.088Z,15.54
2023-06-28T22:40:24.722Z,15.50
2023-06-28T22:42:51.214Z,15.49
2023-06-28T22:45:17.810Z,15.43
2023-06-28T22:47:44.672Z,15.29
2023-06-28T22:50:11.473Z,15.09
2023-06-28T22:52:42.500Z,14.98
2023-06-28T22:55:10.688Z,14.96
2023-06-28T22:57:38.543Z,14.95
2023-06-28T23:00:07.923Z,14.88
2023-06-28T23:02:34.463Z,14.97
2023-06-28T23:05:00.940Z,15.02
2023-06-28T23:07:29.616Z,14.95
2023-06-28T23:09:56.320Z,14.88
2023-06-28T23:12:22.999Z,14.90
2023-06-28T23:14:53.074Z,14.93
2023-06-28T23:17:20.129Z,14.85
2023-06-28T23:19:46.657Z,14.84
2023-06-28T23:22:13.156Z,14.85
2023-06-28T23:24:40.853Z,14.87
2023-06-28T23:27:07.392Z,14.82
2023-06-28T23:29:35.258Z,14.76
2023-06-28T23:32:02.009Z,14.88
2023-06-28T23:34:30.142Z,15.01
2023-06-28T23:36:58.320Z,15.11
2023-06-28T23:39:25.139Z,15.30
2023-06-28T23:41:51.604Z,15.29
2023-06-28T23:44:18.121Z,15.15
2023-06-28T23:46:45.946Z,15.01
2023-06-28T23:49:14.283Z,14.97
2023-06-28T23:51:41.372Z,15.03
2023-06-28T23:54:08.737Z,15.15
2023-06-28T23:56:35.372Z,15.21
2023-06-28T23:59:01.890Z,15.08
